createdAt,value
2022-10-02T00:00:22.847Z,11.90
2022-10-02T00:02:55.832Z,11.90
2022-10-02T00:05:29.595Z,11.90
2022-10-02T00:08:02.521Z,11.90
2022-10-02T00:10:36.364Z,11.90
2022-10-02T00:13:12.721Z,12.00
2022-10-02T00:15:43.483Z,12.00
2022-10-02T00:18:16.212Z,12.00
2022-10-02T00:20:57.121Z,12.00
2022-10-02T00:23:32.762Z,11.90
2022-10-02T00:26:06.975Z,11.90
2022-10-02T00:28:47.768Z,12.00
2022-10-02T00:31:35.299Z,12.00
2022-10-02T00:34:21.875Z,12.00
2022-10-02T00:37:00.011Z,12.00
2022-10-02T00:39:41.860Z,11.90
2022-10-02T00:42:37.681Z,12.00
2022-10-02T00:45:51.922Z,11.90
2022-10-02T00:48:52.722Z,11.80
2022-10-02T00:51:38.441Z,11.80
2022-10-02T00:54:25.615Z,11.80
2022-10-02T00:57:03.513Z,11.80
2022-10-02T00:59:51.696Z,11.90
2022-10-02T01:03:00.546Z,11.80
2022-10-02T01:05:31.112Z,11.80
2022-10-02T01:08:01.023Z,11.80
2022-10-02T01:10:30.845Z,11.80
2022-10-02T01:13:00.101Z,11.80
2022-10-02T01:15:32.144Z,11.70
2022-10-02T01:18:02.385Z,11.80
2022-10-02T01:20:37.685Z,11.80
2022-10-02T01:23:24.830Z,11.80
2022-10-02T01:25:55.545Z,11.70
2022-10-02T01:28:24.796Z,11.80
2022-10-02T01:30:59.441Z,11.80
2022-10-02T01:33:28.486Z,11.90
2022-10-02T01:35:57.713Z,11.90
2022-10-02T01:38:28.026Z,11.90
2022-10-02T01:40:58.411Z,11.90
2022-10-02T01:43:32.427Z,11.90
2022-10-02T01:46:15.726Z,11.90
2022-10-02T01:48:48.576Z,11.90
2022-10-02T01:51:30.704Z,11.90
2022-10-02T01:54:11.375Z,11.90
2022-10-02T01:56:54.668Z,11.90
2022-10-02T01:59:39.045Z,11.90
2022-10-02T02:02:16.096Z,11.90
2022-10-02T02:04:54.551Z,12.00
2022-10-02T02:07:35.754Z,12.00
2022-10-02T02:10:16.179Z,12.00
2022-10-02T02:12:53.183Z,11.90
2022-10-02T02:15:27.242Z,12.00
2022-10-02T02:18:00.133Z,12.00
2022-10-02T02:20:33.314Z,12.00
2022-10-02T02:23:09.158Z,11.90
2022-10-02T02:25:42.498Z,11.90
2022-10-02T02:28:17.650Z,12.00
2022-10-02T02:30:51.017Z,12.00
2022-10-02T02:33:26.277Z,12.00
2022-10-02T02:36:00.412Z,12.10
2022-10-02T02:38:34.279Z,12.00
2022-10-02T02:41:08.292Z,12.00
2022-10-02T02:43:45.955Z,12.10
2022-10-02T02:46:23.252Z,12.00
2022-10-02T02:48:58.771Z,12.00
2022-10-02T02:51:32.577Z,12.00
2022-10-02T02:54:06.990Z,12.00
2022-10-02T02:56:37.726Z,11.90
2022-10-02T02:59:12.943Z,12.00
2022-10-02T03:01:42.763Z,12.00
2022-10-02T03:04:14.499Z,12.00
2022-10-02T03:06:46.162Z,12.00
2022-10-02T03:09:19.252Z,12.00
2022-10-02T03:11:55.799Z,12.00
2022-10-02T03:14:51.325Z,11.90
2022-10-02T03:17:32.291Z,11.90
2022-10-02T03:20:10.428Z,11.90
2022-10-02T03:22:49.685Z,11.90
2022-10-02T03:25:24.495Z,11.80
2022-10-02T03:28:00.432Z,11.80
2022-10-02T03:30:33.137Z,11.80
2022-10-02T03:33:03.582Z,11.80
2022-10-02T03:35:33.852Z,11.80
2022-10-02T03:38:08.041Z,11.90
2022-10-02T03:40:37.120Z,11.90
2022-10-02T03:43:06.303Z,11.90
2022-10-02T03:45:50.867Z,11.90
2022-10-02T03:48:20.403Z,11.90
2022-10-02T03:50:51.398Z,11.80
2022-10-02T03:53:23.171Z,11.90
2022-10-02T03:55:59.378Z,11.90
2022-10-02T03:58:28.515Z,11.90
2022-10-02T04:01:04.142Z,11.90
2022-10-02T04:03:36.417Z,11.90
2022-10-02T04:06:11.184Z,11.90
2022-10-02T04:08:46.054Z,11.90
2022-10-02T04:11:18.711Z,11.90
2022-10-02T04:13:51.894Z,11.90
2022-10-02T04:16:29.183Z,12.00
2022-10-02T04:19:02.845Z,12.00
2022-10-02T04:21:37.972Z,12.00
2022-10-02T04:24:15.561Z,12.00
2022-10-02T04:26:55.534Z,12.00
2022-10-02T04:29:28.665Z,11.90
2022-10-02T04:32:09.241Z,11.90
2022-10-02T04:34:38.283Z,12.00
2022-10-02T04:37:21.642Z,12.00
2022-10-02T04:40:05.846Z,12.00
2022-10-02T04:42:49.875Z,12.00
2022-10-02T04:45:39.110Z,12.00
2022-10-02T04:48:36.737Z,12.00
2022-10-02T04:51:18.705Z,12.00
2022-10-02T04:54:15.336Z,12.00
2022-10-02T04:57:02.175Z,12.00
2022-10-02T04:59:43.866Z,12.00
2022-10-02T05:02:28.692Z,12.00
2022-10-02T05:05:11.766Z,12.00
2022-10-02T05:07:57.145Z,12.00
2022-10-02T05:10:56.097Z,12.00
2022-10-02T05:13:40.366Z,12.00
2022-10-02T05:16:29.731Z,12.00
2022-10-02T05:19:27.380Z,12.10
2022-10-02T05:22:15.935Z,12.10
2022-10-02T05:24:56.816Z,12.10
2022-10-02T05:27:55.983Z,12.10
2022-10-02T05:30:25.734Z,12.10
2022-10-02T05:33:33.309Z,12.10
2022-10-02T05:36:42.591Z,12.10
2022-10-02T05:39:19.826Z,12.10
2022-10-02T05:41:56.139Z,12.20
2022-10-02T05:44:30.105Z,12.10
2022-10-02T05:47:03.012Z,12.30
2022-10-02T05:49:37.202Z,12.20
2022-10-02T05:52:13.255Z,12.30
2022-10-02T05:54:51.370Z,12.30
2022-10-02T05:57:27.626Z,12.30
2022-10-02T06:00:04.579Z,12.30
2022-10-02T06:02:48.695Z,12.30
2022-10-02T06:05:23.488Z,12.30
2022-10-02T06:07:57.761Z,12.30
2022-10-02T06:10:32.296Z,12.30
2022-10-02T06:13:08.841Z,12.40
2022-10-02T06:15:44.486Z,12.40
2022-10-02T06:18:19.652Z,12.40
2022-10-02T06:20:53.806Z,12.40
2022-10-02T06:23:27.638Z,12.40
2022-10-02T06:26:01.321Z,12.50
2022-10-02T06:28:37.670Z,12.50
2022-10-02T06:31:15.370Z,12.60
2022-10-02T06:33:45.610Z,12.60
2022-10-02T06:37:05.416Z,12.70
2022-10-02T06:40:04.069Z,12.60
2022-10-02T06:42:49.831Z,12.60
2022-10-02T06:45:28.645Z,12.60
2022-10-02T06:48:07.572Z,12.60
2022-10-02T06:50:44.661Z,12.70
2022-10-02T06:53:47.790Z,12.70
2022-10-02T06:56:39.543Z,12.70
2022-10-02T06:59:22.173Z,12.80
2022-10-02T07:01:59.480Z,12.90
2022-10-02T07:04:44.277Z,13.00
2022-10-02T07:07:44.296Z,13.00
2022-10-02T07:10:23.324Z,13.00
2022-10-02T07:13:09.719Z,13.10
2022-10-02T07:16:14.181Z,13.00
2022-10-02T07:19:02.643Z,13.00
2022-10-02T07:21:39.807Z,13.00
2022-10-02T07:24:26.346Z,13.00
2022-10-02T07:27:03.412Z,13.00
2022-10-02T07:29:47.798Z,12.90
2022-10-02T07:32:39.682Z,13.00
2022-10-02T07:35:27.223Z,13.00
2022-10-02T07:38:09.302Z,13.00
2022-10-02T07:40:49.329Z,13.20
2022-10-02T07:43:41.293Z,13.20
2022-10-02T07:46:18.206Z,13.40
2022-10-02T07:49:15.639Z,13.50
2022-10-02T07:51:53.994Z,13.50
2022-10-02T07:54:48.213Z,13.60
2022-10-02T07:57:28.997Z,13.70
2022-10-02T08:00:06.487Z,13.80
2022-10-02T08:02:47.256Z,13.80
2022-10-02T08:05:22.098Z,13.90
2022-10-02T08:07:55.716Z,13.80
2022-10-02T08:10:32.827Z,13.80
2022-10-02T08:13:07.618Z,13.80
2022-10-02T08:15:38.920Z,13.80
2022-10-02T08:18:33.730Z,13.70
2022-10-02T08:21:09.598Z,13.70
2022-10-02T08:23:44.156Z,13.80
2022-10-02T08:26:19.807Z,13.80
2022-10-02T08:28:57.179Z,13.70
2022-10-02T08:31:27.345Z,13.80
2022-10-02T08:33:57.852Z,13.80
2022-10-02T08:36:55.529Z,13.80
2022-10-02T08:39:55.316Z,13.80
2022-10-02T08:43:27.324Z,13.80
2022-10-02T08:46:34.425Z,13.80
2022-10-02T08:49:46.260Z,13.80
2022-10-02T08:53:06.068Z,13.90
2022-10-02T08:55:51.105Z,13.90
2022-10-02T08:58:59.559Z,13.90
2022-10-02T09:01:49.615Z,14.10
2022-10-02T09:04:52.945Z,14.20
2022-10-02T09:07:59.252Z,14.40
2022-10-02T09:11:03.936Z,14.70
2022-10-02T09:13:55.607Z,14.90
2022-10-02T09:16:34.872Z,15.10
2022-10-02T09:19:07.748Z,15.20
2022-10-02T09:21:56.315Z,15.30
2022-10-02T09:25:02.653Z,15.50
2022-10-02T09:28:19.711Z,15.70
2022-10-02T09:31:27.105Z,15.90
2022-10-02T09:34:47.691Z,15.90
2022-10-02T09:37:46.320Z,15.80
2022-10-02T09:40:49.023Z,16.00
2022-10-02T09:44:08.888Z,16.10
2022-10-02T09:47:05.341Z,16.10
2022-10-02T09:50:11.555Z,15.90
2022-10-02T09:53:19.736Z,15.90
2022-10-02T09:56:22.600Z,15.80
2022-10-02T09:59:24.330Z,16.00
2022-10-02T10:02:31.690Z,16.40
2022-10-02T10:05:28.969Z,16.80
2022-10-02T10:08:35.840Z,17.20
2022-10-02T10:11:23.768Z,17.50
2022-10-02T10:14:37.323Z,17.90
2022-10-02T10:17:24.559Z,18.40
2022-10-02T10:20:23.053Z,18.80
2022-10-02T10:23:26.575Z,18.80
2022-10-02T10:26:34.831Z,18.80
2022-10-02T10:29:29.974Z,18.70
2022-10-02T10:32:36.155Z,18.60
2022-10-02T10:35:22.884Z,18.60
2022-10-02T10:38:15.087Z,18.90
2022-10-02T10:41:09.612Z,19.00
2022-10-02T10:44:14.468Z,18.70
2022-10-02T10:47:09.405Z,18.40
2022-10-02T10:50:20.754Z,18.10
2022-10-02T10:53:28.519Z,18.00
2022-10-02T10:56:37.131Z,18.20
2022-10-02T10:59:56.543Z,18.20
2022-10-02T11:02:58.019Z,18.10
2022-10-02T11:06:07.574Z,17.90
2022-10-02T11:09:13.407Z,17.30
2022-10-02T11:11:59.399Z,16.60
2022-10-02T11:14:42.984Z,16.10
2022-10-02T11:17:32.637Z,15.90
2022-10-02T11:20:21.518Z,15.80
2022-10-02T11:23:06.695Z,15.80
2022-10-02T11:26:04.467Z,15.90
2022-10-02T11:29:00.671Z,16.10
2022-10-02T11:31:55.013Z,16.30
2022-10-02T11:34:53.817Z,16.20
2022-10-02T11:37:34.416Z,16.20
2022-10-02T11:40:30.305Z,16.30
2022-10-02T11:43:38.453Z,16.50
2022-10-02T11:46:46.244Z,16.40
2022-10-02T11:49:42.684Z,16.30
2022-10-02T11:52:26.393Z,16.40
2022-10-02T11:55:07.347Z,16.30
2022-10-02T11:57:48.214Z,16.30
2022-10-02T12:00:51.738Z,16.40
2022-10-02T12:03:29.580Z,16.40
2022-10-02T12:06:05.004Z,16.40
2022-10-02T12:08:47.655Z,16.40
2022-10-02T12:11:23.169Z,16.30
2022-10-02T12:14:34.498Z,16.30
2022-10-02T12:17:19.045Z,16.30
2022-10-02T12:20:21.297Z,16.20
2022-10-02T12:23:18.578Z,16.00
2022-10-02T12:26:12.737Z,15.70
2022-10-02T12:28:52.595Z,15.50
2022-10-02T12:31:29.335Z,15.30
2022-10-02T12:34:06.027Z,15.30
2022-10-02T12:36:58.599Z,15.10
2022-10-02T12:39:43.267Z,15.00
2022-10-02T12:42:35.751Z,15.00
2022-10-02T12:45:24.347Z,15.10
2022-10-02T12:48:20.266Z,15.30
2022-10-02T12:51:06.147Z,15.30
2022-10-02T12:54:09.067Z,15.40
2022-10-02T12:57:38.767Z,15.30
2022-10-02T13:00:16.600Z,15.10
2022-10-02T13:03:24.404Z,15.10
2022-10-02T13:06:19.358Z,15.10
2022-10-02T13:09:06.279Z,15.10
2022-10-02T13:11:53.671Z,15.20
2022-10-02T13:15:02.241Z,15.20
2022-10-02T13:17:46.519Z,15.30
2022-10-02T13:20:23.478Z,15.40
2022-10-02T13:23:04.599Z,15.60
2022-10-02T13:25:44.680Z,15.70
2022-10-02T13:28:31.843Z,15.80
2022-10-02T13:31:12.317Z,15.80
2022-10-02T13:34:05.989Z,15.80
2022-10-02T13:36:50.147Z,15.80
2022-10-02T13:39:32.869Z,15.80
2022-10-02T13:42:18.397Z,15.70
2022-10-02T13:45:00.846Z,15.80
2022-10-02T13:47:43.679Z,15.70
2022-10-02T13:50:32.599Z,15.50
2022-10-02T13:53:25.956Z,15.50
2022-10-02T13:56:03.078Z,15.30
2022-10-02T13:58:50.838Z,15.40
2022-10-02T14:01:32.035Z,15.40
2022-10-02T14:04:25.477Z,15.60
2022-10-02T14:07:07.027Z,15.70
2022-10-02T14:09:51.837Z,15.80
2022-10-02T14:12:37.438Z,16.00
2022-10-02T14:15:32.117Z,16.10
2022-10-02T14:18:20.028Z,16.20
2022-10-02T14:20:56.190Z,16.20
2022-10-02T14:23:41.429Z,16.30
2022-10-02T14:26:20.750Z,16.30
2022-10-02T14:29:08.930Z,16.20
2022-10-02T14:32:05.461Z,16.10
2022-10-02T14:35:11.848Z,16.10
2022-10-02T14:38:12.810Z,16.10
2022-10-02T14:40:53.192Z,16.10
2022-10-02T14:43:59.439Z,16.10
2022-10-02T14:46:54.951Z,16.20
2022-10-02T14:49:44.362Z,16.30
2022-10-02T14:52:44.242Z,16.20
2022-10-02T14:55:26.435Z,16.10
2022-10-02T14:58:16.524Z,16.00
2022-10-02T15:00:59.361Z,16.10
2022-10-02T15:04:01.288Z,16.10
2022-10-02T15:06:44.953Z,16.20
2022-10-02T15:09:20.633Z,16.00
2022-10-02T15:12:10.794Z,16.00
2022-10-02T15:14:48.481Z,16.00
2022-10-02T15:17:48.766Z,16.00
2022-10-02T15:20:26.801Z,15.90
2022-10-02T15:23:00.286Z,15.70
2022-10-02T15:26:12.314Z,15.70
2022-10-02T15:28:55.897Z,15.80
2022-10-02T15:31:38.206Z,15.60
2022-10-02T15:34:20.489Z,15.50
2022-10-02T15:37:12.442Z,15.50
2022-10-02T15:40:07.009Z,15.50
2022-10-02T15:42:58.948Z,15.40
2022-10-02T15:45:37.814Z,15.20
2022-10-02T15:48:43.821Z,15.10
2022-10-02T15:51:27.525Z,15.00
2022-10-02T15:54:09.564Z,14.80
2022-10-02T15:56:54.125Z,14.60
2022-10-02T15:59:40.526Z,14.50
2022-10-02T16:02:25.348Z,14.40
2022-10-02T16:05:14.529Z,14.30
2022-10-02T16:08:01.562Z,14.20
2022-10-02T16:10:41.005Z,14.20
2022-10-02T16:13:27.242Z,14.00
2022-10-02T16:16:02.901Z,13.90
2022-10-02T16:18:58.204Z,13.90
2022-10-02T16:21:53.167Z,13.80
2022-10-02T16:24:44.203Z,13.70
2022-10-02T16:27:27.633Z,13.60
2022-10-02T16:30:13.258Z,13.50
2022-10-02T16:33:05.966Z,13.50
2022-10-02T16:36:35.481Z,13.50
2022-10-02T16:39:24.205Z,13.40
2022-10-02T16:42:04.206Z,13.30
2022-10-02T16:44:56.768Z,13.30
2022-10-02T16:47:32.128Z,13.20
2022-10-02T16:50:15.886Z,13.20
2022-10-02T16:52:53.006Z,13.20
2022-10-02T16:55:31.887Z,13.10
2022-10-02T16:58:24.762Z,13.00
2022-10-02T17:00:59.631Z,13.10
2022-10-02T17:03:36.127Z,13.00
2022-10-02T17:06:14.366Z,13.00
2022-10-02T17:08:52.445Z,13.00
2022-10-02T17:11:28.765Z,12.90
2022-10-02T17:14:16.124Z,12.90
2022-10-02T17:16:57.027Z,12.90
2022-10-02T17:19:31.890Z,12.80
2022-10-02T17:22:06.046Z,12.80
2022-10-02T17:24:49.406Z,12.80
2022-10-02T17:27:30.042Z,12.80
2022-10-02T17:30:06.033Z,12.70
2022-10-02T17:32:43.552Z,12.60
2022-10-02T17:35:19.234Z,12.60
2022-10-02T17:38:08.753Z,12.50
2022-10-02T17:40:45.641Z,12.60
2022-10-02T17:43:31.724Z,12.60
2022-10-02T17:46:22.993Z,12.60
2022-10-02T17:48:57.568Z,12.50
2022-10-02T17:51:52.448Z,12.50
2022-10-02T17:55:09.410Z,12.50
2022-10-02T17:57:55.087Z,12.40
2022-10-02T18:00:28.433Z,12.40
2022-10-02T18:03:26.845Z,12.40
2022-10-02T18:06:07.073Z,12.40
2022-10-02T18:09:18.756Z,12.30
2022-10-02T18:12:09.962Z,12.20
2022-10-02T18:15:01.872Z,12.20
2022-10-02T18:17:49.154Z,12.20
2022-10-02T18:20:28.754Z,12.10
2022-10-02T18:23:15.448Z,12.10
2022-10-02T18:25:58.126Z,12.00
2022-10-02T18:28:48.081Z,12.00
2022-10-02T18:31:54.520Z,12.00
2022-10-02T18:34:43.605Z,12.00
2022-10-02T18:37:42.402Z,12.00
2022-10-02T18:40:24.205Z,12.00
2022-10-02T18:43:22.408Z,11.90
2022-10-02T18:46:02.716Z,11.90
2022-10-02T18:49:11.192Z,11.80
2022-10-02T18:52:19.312Z,11.80
2022-10-02T18:55:02.034Z,11.80
2022-10-02T18:57:44.474Z,11.80
2022-10-02T19:00:21.841Z,11.80
2022-10-02T19:03:10.764Z,11.80
2022-10-02T19:05:47.926Z,11.80
2022-10-02T19:08:24.730Z,11.80
2022-10-02T19:10:56.565Z,11.80
2022-10-02T19:13:28.526Z,11.80
2022-10-02T19:16:01.540Z,11.80
2022-10-02T19:18:33.290Z,11.80
2022-10-02T19:21:08.723Z,11.80
2022-10-02T19:23:43.072Z,11.80
2022-10-02T19:26:21.731Z,11.80
2022-10-02T19:28:55.475Z,11.90
2022-10-02T19:31:29.159Z,11.80
2022-10-02T19:34:03.486Z,11.90
2022-10-02T19:36:35.885Z,11.90
2022-10-02T19:39:10.713Z,11.90
2022-10-02T19:41:45.754Z,12.00
2022-10-02T19:44:22.208Z,12.10
2022-10-02T19:46:54.505Z,12.10
2022-10-02T19:49:28.765Z,12.10
2022-10-02T19:51:59.114Z,12.10
2022-10-02T19:54:33.285Z,12.20
2022-10-02T19:57:10.233Z,12.10
2022-10-02T19:59:44.243Z,12.10
2022-10-02T20:02:20.228Z,12.20
2022-10-02T20:04:51.201Z,12.20
2022-10-02T20:07:22.525Z,12.20
2022-10-02T20:09:57.272Z,12.10
2022-10-02T20:12:33.272Z,12.10
2022-10-02T20:15:07.553Z,12.10
2022-10-02T20:17:37.805Z,12.10
2022-10-02T20:20:12.684Z,12.00
2022-10-02T20:22:45.678Z,11.90
2022-10-02T20:25:21.401Z,11.80
2022-10-02T20:27:56.075Z,11.80
2022-10-02T20:30:31.668Z,11.70
2022-10-02T20:33:06.868Z,11.60
2022-10-02T20:35:41.198Z,11.60
2022-10-02T20:38:19.988Z,11.50
2022-10-02T20:40:53.708Z,11.40
2022-10-02T20:43:32.506Z,11.40
2022-10-02T20:46:25.642Z,11.40
2022-10-02T20:49:23.677Z,11.40
2022-10-02T20:52:29.680Z,11.40
2022-10-02T20:55:03.358Z,11.40
2022-10-02T20:58:09.638Z,11.30
2022-10-02T21:01:00.400Z,11.30
2022-10-02T21:04:13.388Z,11.30
2022-10-02T21:07:27.468Z,11.30
2022-10-02T21:10:39.718Z,11.30
2022-10-02T21:13:42.598Z,11.30
2022-10-02T21:16:36.346Z,11.30
2022-10-02T21:19:42.153Z,11.30
2022-10-02T21:22:42.908Z,11.30
2022-10-02T21:25:45.589Z,11.30
2022-10-02T21:28:53.228Z,11.30
2022-10-02T21:31:43.227Z,11.40
2022-10-02T21:34:25.790Z,11.30
2022-10-02T21:37:00.708Z,11.30
2022-10-02T21:40:03.068Z,11.40
2022-10-02T21:43:09.079Z,11.40
2022-10-02T21:46:05.010Z,11.30
2022-10-02T21:49:16.787Z,11.40
2022-10-02T21:52:49.388Z,11.30
2022-10-02T21:55:54.427Z,11.30
2022-10-02T21:58:53.307Z,11.30
2022-10-02T22:02:04.112Z,11.20
2022-10-02T22:05:21.374Z,11.20
2022-10-02T22:07:57.518Z,11.20
2022-10-02T22:10:33.879Z,11.20
2022-10-02T22:13:21.591Z,11.10
2022-10-02T22:16:04.442Z,11.00
2022-10-02T22:18:46.477Z,11.00
2022-10-02T22:21:48.957Z,11.00
2022-10-02T22:25:03.361Z,10.90
2022-10-02T22:28:01.940Z,10.90
2022-10-02T22:30:33.149Z,10.90
2022-10-02T22:33:35.518Z,10.90
2022-10-02T22:36:32.590Z,10.90
2022-10-02T22:39:09.917Z,10.90
2022-10-02T22:41:45.121Z,10.90
2022-10-02T22:44:24.348Z,10.90
2022-10-02T22:46:58.468Z,10.90
2022-10-02T22:49:33.987Z,10.90
2022-10-02T22:52:12.237Z,10.90
2022-10-02T22:54:48.439Z,10.90
2022-10-02T22:57:30.402Z,10.90
2022-10-02T23:00:04.718Z,10.90
2022-10-02T23:02:45.196Z,10.90
2022-10-02T23:05:22.454Z,10.80
2022-10-02T23:07:57.974Z,10.80
2022-10-02T23:10:37.162Z,10.90
2022-10-02T23:13:15.691Z,10.80
2022-10-02T23:15:54.862Z,10.80
2022-10-02T23:18:34.922Z,10.80
2022-10-02T23:21:17.002Z,10.70
2022-10-02T23:23:53.773Z,10.70
2022-10-02T23:26:32.042Z,10.70
2022-10-02T23:29:16.615Z,10.70
2022-10-02T23:31:54.972Z,10.70
2022-10-02T23:34:39.530Z,10.70
2022-10-02T23:37:18.970Z,10.60
2022-10-02T23:39:55.691Z,10.70
2022-10-02T23:42:34.929Z,10.70
2022-10-02T23:45:10.572Z,10.60
2022-10-02T23:47:55.083Z,10.70
2022-10-02T23:50:26.811Z,10.60
2022-10-02T23:53:14.522Z,10.70
2022-10-02T23:56:00.891Z,10.80
2022-10-02T23:58:57.452Z,10.70
